sensor_id;sensor_type;location;lat;lon;timestamp;P1;durP1;ratioP1;P2;durP2;ratioP2
61252;SDS011;47127;47.516;8.596;2023-05-07T00:01:05;3.67;;;1.00;;
61252;SDS011;47127;47.516;8.596;2023-05-07T00:03:31;3.58;;;1.02;;
61252;SDS011;47127;47.516;8.596;2023-05-07T00:05:57;8.23;;;1.40;;
61252;SDS011;47127;47.516;8.596;2023-05-07T00:08:23;4.43;;;1.40;;
61252;SDS011;47127;47.516;8.596;2023-05-07T00:10:50;13.57;;;1.33;;
61252;SDS011;47127;47.516;8.596;2023-05-07T00:13:15;3.35;;;1.20;;
61252;SDS011;47127;47.516;8.596;2023-05-07T00:15:41;10.93;;;1.30;;
61252;SDS011;47127;47.516;8.596;2023-05-07T00:18:07;3.60;;;1.50;;
61252;SDS011;47127;47.516;8.596;2023-05-07T00:20:33;3.50;;;1.20;;
61252;SDS011;47127;47.516;8.596;2023-05-07T00:22:59;5.68;;;1.35;;
61252;SDS011;47127;47.516;8.596;2023-05-07T00:25:25;2.92;;;1.00;;
61252;SDS011;47127;47.516;8.596;2023-05-07T00:27:50;2.38;;;1.20;;
61252;SDS011;47127;47.516;8.596;2023-05-07T00:30:16;2.97;;;1.05;;
61252;SDS011;47127;47.516;8.596;2023-05-07T00:32:41;3.13;;;1.15;;
61252;SDS011;47127;47.516;8.596;2023-05-07T00:35:07;3.30;;;1.02;;
61252;SDS011;47127;47.516;8.596;2023-05-07T00:37:33;1.92;;;1.00;;
61252;SDS011;47127;47.516;8.596;2023-05-07T00:39:58;3.88;;;1.30;;
61252;SDS011;47127;47.516;8.596;2023-05-07T00:42:24;5.35;;;1.60;;
61252;SDS011;47127;47.516;8.596;2023-05-07T00:44:50;2.78;;;1.00;;
61252;SDS011;47127;47.516;8.596;2023-05-07T00:47:16;3.60;;;1.20;;
61252;SDS011;47127;47.516;8.596;2023-05-07T00:49:42;3.58;;;1.00;;
61252;SDS011;47127;47.516;8.596;2023-05-07T00:52:10;5.05;;;1.35;;
61252;SDS011;47127;47.516;8.596;2023-05-07T00:54:37;2.80;;;1.00;;
61252;SDS011;47127;47.516;8.596;2023-05-07T00:57:05;1.98;;;1.00;;
61252;SDS011;47127;47.516;8.596;2023-05-07T00:59:31;5.53;;;1.00;;
61252;SDS011;47127;47.516;8.596;2023-05-07T01:01:58;4.10;;;1.15;;
61252;SDS011;47127;47.516;8.596;2023-05-07T01:04:24;4.35;;;0.85;;
61252;SDS011;47127;47.516;8.596;2023-05-07T01:06:51;2.60;;;1.00;;
61252;SDS011;47127;47.516;8.596;2023-05-07T01:09:17;4.18;;;1.08;;
61252;SDS011;47127;47.516;8.596;2023-05-07T01:11:44;3.50;;;1.15;;
61252;SDS011;47127;47.516;8.596;2023-05-07T01:14:11;2.80;;;1.10;;
61252;SDS011;47127;47.516;8.596;2023-05-07T01:16:36;4.10;;;1.13;;
61252;SDS011;47127;47.516;8.596;2023-05-07T01:19:02;1.77;;;1.02;;
61252;SDS011;47127;47.516;8.596;2023-05-07T01:21:28;1.67;;;0.98;;
61252;SDS011;47127;47.516;8.596;2023-05-07T01:23:58;7.13;;;1.60;;
61252;SDS011;47127;47.516;8.596;2023-05-07T01:26:23;3.67;;;1.50;;
61252;SDS011;47127;47.516;8.596;2023-05-07T01:28:49;4.97;;;1.00;;
61252;SDS011;47127;47.516;8.596;2023-05-07T01:31:15;2.15;;;0.98;;
61252;SDS011;47127;47.516;8.596;2023-05-07T01:33:42;2.65;;;1.33;;
61252;SDS011;47127;47.516;8.596;2023-05-07T01:36:11;2.92;;;1.20;;
61252;SDS011;47127;47.516;8.596;2023-05-07T01:38:38;2.40;;;0.82;;
61252;SDS011;47127;47.516;8.596;2023-05-07T01:41:06;6.15;;;1.50;;
61252;SDS011;47127;47.516;8.596;2023-05-07T01:43:32;2.70;;;1.00;;
61252;SDS011;47127;47.516;8.596;2023-05-07T01:45:58;3.72;;;1.20;;
61252;SDS011;47127;47.516;8.596;2023-05-07T01:48:24;3.30;;;1.02;;
61252;SDS011;47127;47.516;8.596;2023-05-07T01:50:51;3.05;;;1.10;;
61252;SDS011;47127;47.516;8.596;2023-05-07T01:53:17;7.70;;;1.30;;
61252;SDS011;47127;47.516;8.596;2023-05-07T01:55:42;4.40;;;1.30;;
61252;SDS011;47127;47.516;8.596;2023-05-07T01:58:08;1.73;;;1.10;;
61252;SDS011;47127;47.516;8.596;2023-05-07T02:00:34;1.40;;;1.00;;
61252;SDS011;47127;47.516;8.596;2023-05-07T02:02:59;4.93;;;1.83;;
61252;SDS011;47127;47.516;8.596;2023-05-07T02:05:25;2.20;;;1.17;;
61252;SDS011;47127;47.516;8.596;2023-05-07T02:07:50;4.10;;;1.50;;
61252;SDS011;47127;47.516;8.596;2023-05-07T02:10:16;4.68;;;1.27;;
61252;SDS011;47127;47.516;8.596;2023-05-07T02:12:42;5.68;;;1.33;;
61252;SDS011;47127;47.516;8.596;2023-05-07T02:15:07;3.80;;;1.13;;
61252;SDS011;47127;47.516;8.596;2023-05-07T02:17:33;3.70;;;1.20;;
61252;SDS011;47127;47.516;8.596;2023-05-07T02:19:59;3.38;;;1.20;;
61252;SDS011;47127;47.516;8.596;2023-05-07T02:22:25;2.85;;;1.17;;
61252;SDS011;47127;47.516;8.596;2023-05-07T02:24:50;3.17;;;1.00;;
61252;SDS011;47127;47.516;8.596;2023-05-07T02:27:16;3.67;;;0.90;;
61252;SDS011;47127;47.516;8.596;2023-05-07T02:29:47;4.05;;;1.67;;
61252;SDS011;47127;47.516;8.596;2023-05-07T02:32:12;4.07;;;1.25;;
61252;SDS011;47127;47.516;8.596;2023-05-07T02:34:38;4.63;;;1.77;;
61252;SDS011;47127;47.516;8.596;2023-05-07T02:37:03;4.97;;;1.70;;
61252;SDS011;47127;47.516;8.596;2023-05-07T02:39:30;4.88;;;1.27;;
61252;SDS011;47127;47.516;8.596;2023-05-07T02:41:56;3.42;;;1.30;;
61252;SDS011;47127;47.516;8.596;2023-05-07T02:44:21;2.10;;;1.20;;
61252;SDS011;47127;47.516;8.596;2023-05-07T02:46:47;4.10;;;1.67;;
61252;SDS011;47127;47.516;8.596;2023-05-07T02:49:12;2.55;;;1.30;;
61252;SDS011;47127;47.516;8.596;2023-05-07T02:51:39;2.72;;;1.40;;
61252;SDS011;47127;47.516;8.596;2023-05-07T02:54:04;1.42;;;1.02;;
61252;SDS011;47127;47.516;8.596;2023-05-07T02:56:30;2.83;;;1.40;;
61252;SDS011;47127;47.516;8.596;2023-05-07T02:58:56;2.58;;;1.08;;
61252;SDS011;47127;47.516;8.596;2023-05-07T03:01:21;3.58;;;1.42;;
61252;SDS011;47127;47.516;8.596;2023-05-07T03:03:47;4.43;;;1.60;;
61252;SDS011;47127;47.516;8.596;2023-05-07T03:06:14;3.95;;;1.35;;
61252;SDS011;47127;47.516;8.596;2023-05-07T03:08:40;4.95;;;1.73;;
61252;SDS011;47127;47.516;8.596;2023-05-07T03:11:05;2.95;;;1.45;;
61252;SDS011;47127;47.516;8.596;2023-05-07T03:13:31;4.60;;;1.23;;
61252;SDS011;47127;47.516;8.596;2023-05-07T03:15:56;2.90;;;1.48;;
61252;SDS011;47127;47.516;8.596;2023-05-07T03:18:22;3.97;;;1.25;;
61252;SDS011;47127;47.516;8.596;2023-05-07T03:20:48;4.63;;;1.35;;
61252;SDS011;47127;47.516;8.596;2023-05-07T03:23:13;2.45;;;1.38;;
61252;SDS011;47127;47.516;8.596;2023-05-07T03:25:39;3.53;;;1.50;;
61252;SDS011;47127;47.516;8.596;2023-05-07T03:28:04;7.28;;;1.83;;
61252;SDS011;47127;47.516;8.596;2023-05-07T03:30:30;4.88;;;1.63;;
61252;SDS011;47127;47.516;8.596;2023-05-07T03:32:56;4.05;;;1.45;;
61252;SDS011;47127;47.516;8.596;2023-05-07T03:35:21;3.78;;;1.58;;
61252;SDS011;47127;47.516;8.596;2023-05-07T03:37:47;7.55;;;2.28;;
61252;SDS011;47127;47.516;8.596;2023-05-07T03:40:12;2.70;;;1.70;;
61252;SDS011;47127;47.516;8.596;2023-05-07T03:42:38;4.63;;;1.40;;
61252;SDS011;47127;47.516;8.596;2023-05-07T03:45:03;5.50;;;1.70;;
61252;SDS011;47127;47.516;8.596;2023-05-07T03:47:30;4.25;;;2.10;;
61252;SDS011;47127;47.516;8.596;2023-05-07T03:49:55;4.07;;;1.60;;
61252;SDS011;47127;47.516;8.596;2023-05-07T03:52:21;4.30;;;1.98;;
61252;SDS011;47127;47.516;8.596;2023-05-07T03:54:50;5.90;;;1.77;;
61252;SDS011;47127;47.516;8.596;2023-05-07T03:57:18;3.50;;;1.63;;
61252;SDS011;47127;47.516;8.596;2023-05-07T03:59:43;3.45;;;1.75;;
61252;SDS011;47127;47.516;8.596;2023-05-07T04:02:09;5.30;;;1.45;;
61252;SDS011;47127;47.516;8.596;2023-05-07T04:04:34;3.72;;;1.30;;
61252;SDS011;47127;47.516;8.596;2023-05-07T04:07:00;5.20;;;1.50;;
61252;SDS011;47127;47.516;8.596;2023-05-07T04:09:26;4.32;;;1.63;;
61252;SDS011;47127;47.516;8.596;2023-05-07T04:11:51;3.63;;;1.70;;
61252;SDS011;47127;47.516;8.596;2023-05-07T04:14:17;5.32;;;1.70;;
61252;SDS011;47127;47.516;8.596;2023-05-07T04:16:42;4.90;;;1.50;;
61252;SDS011;47127;47.516;8.596;2023-05-07T04:19:08;5.25;;;2.00;;
61252;SDS011;47127;47.516;8.596;2023-05-07T04:21:34;3.95;;;1.70;;
61252;SDS011;47127;47.516;8.596;2023-05-07T04:23:59;5.78;;;1.75;;
61252;SDS011;47127;47.516;8.596;2023-05-07T04:26:25;3.30;;;1.73;;
61252;SDS011;47127;47.516;8.596;2023-05-07T04:28:50;5.22;;;2.08;;
61252;SDS011;47127;47.516;8.596;2023-05-07T04:31:16;3.60;;;2.10;;
61252;SDS011;47127;47.516;8.596;2023-05-07T04:33:42;5.43;;;1.60;;
61252;SDS011;47127;47.516;8.596;2023-05-07T04:36:07;5.35;;;2.20;;
61252;SDS011;47127;47.516;8.596;2023-05-07T04:38:33;5.03;;;1.85;;
61252;SDS011;47127;47.516;8.596;2023-05-07T04:41:05;8.13;;;1.80;;
61252;SDS011;47127;47.516;8.596;2023-05-07T04:43:31;3.63;;;1.85;;
61252;SDS011;47127;47.516;8.596;2023-05-07T04:45:57;3.83;;;2.00;;
61252;SDS011;47127;47.516;8.596;2023-05-07T04:48:23;4.22;;;1.80;;
61252;SDS011;47127;47.516;8.596;2023-05-07T04:50:49;6.00;;;1.98;;
61252;SDS011;47127;47.516;8.596;2023-05-07T04:53:16;3.40;;;1.80;;
61252;SDS011;47127;47.516;8.596;2023-05-07T04:55:42;4.78;;;1.90;;
61252;SDS011;47127;47.516;8.596;2023-05-07T04:58:08;4.68;;;1.60;;
61252;SDS011;47127;47.516;8.596;2023-05-07T05:00:34;5.07;;;1.90;;
61252;SDS011;47127;47.516;8.596;2023-05-07T05:02:59;5.50;;;2.13;;
61252;SDS011;47127;47.516;8.596;2023-05-07T05:05:25;4.72;;;2.42;;
61252;SDS011;47127;47.516;8.596;2023-05-07T05:07:50;5.00;;;2.38;;
61252;SDS011;47127;47.516;8.596;2023-05-07T05:10:17;6.25;;;2.47;;
61252;SDS011;47127;47.516;8.596;2023-05-07T05:12:42;5.60;;;2.38;;
61252;SDS011;47127;47.516;8.596;2023-05-07T05:15:08;5.15;;;2.63;;
61252;SDS011;47127;47.516;8.596;2023-05-07T05:17:35;4.82;;;2.40;;
61252;SDS011;47127;47.516;8.596;2023-05-07T05:20:01;4.90;;;2.55;;
61252;SDS011;47127;47.516;8.596;2023-05-07T05:22:27;5.30;;;2.80;;
61252;SDS011;47127;47.516;8.596;2023-05-07T05:24:54;7.00;;;2.60;;
61252;SDS011;47127;47.516;8.596;2023-05-07T05:27:20;6.80;;;2.80;;
61252;SDS011;47127;47.516;8.596;2023-05-07T05:29:45;6.65;;;2.60;;
61252;SDS011;47127;47.516;8.596;2023-05-07T05:32:11;6.22;;;2.42;;
61252;SDS011;47127;47.516;8.596;2023-05-07T05:34:36;4.13;;;2.22;;
61252;SDS011;47127;47.516;8.596;2023-05-07T05:37:02;5.15;;;2.65;;
61252;SDS011;47127;47.516;8.596;2023-05-07T05:39:27;6.60;;;2.25;;
61252;SDS011;47127;47.516;8.596;2023-05-07T05:41:53;5.13;;;2.40;;
61252;SDS011;47127;47.516;8.596;2023-05-07T05:44:19;4.97;;;2.40;;
61252;SDS011;47127;47.516;8.596;2023-05-07T05:46:44;6.38;;;2.30;;
61252;SDS011;47127;47.516;8.596;2023-05-07T05:49:10;6.45;;;2.58;;
61252;SDS011;47127;47.516;8.596;2023-05-07T05:51:36;5.38;;;2.45;;
61252;SDS011;47127;47.516;8.596;2023-05-07T05:54:01;4.38;;;2.53;;
61252;SDS011;47127;47.516;8.596;2023-05-07T05:56:27;4.55;;;2.28;;
61252;SDS011;47127;47.516;8.596;2023-05-07T05:58:52;4.03;;;2.15;;
61252;SDS011;47127;47.516;8.596;2023-05-07T06:01:18;8.93;;;2.08;;
61252;SDS011;47127;47.516;8.596;2023-05-07T06:03:44;9.38;;;3.47;;
61252;SDS011;47127;47.516;8.596;2023-05-07T06:06:09;8.02;;;2.78;;
61252;SDS011;47127;47.516;8.596;2023-05-07T06:08:35;4.47;;;2.40;;
61252;SDS011;47127;47.516;8.596;2023-05-07T06:11:01;5.43;;;2.53;;
61252;SDS011;47127;47.516;8.596;2023-05-07T06:13:27;6.18;;;2.25;;
61252;SDS011;47127;47.516;8.596;2023-05-07T06:15:53;6.55;;;2.22;;
61252;SDS011;47127;47.516;8.596;2023-05-07T06:18:18;3.25;;;2.20;;
61252;SDS011;47127;47.516;8.596;2023-05-07T06:20:44;3.88;;;2.50;;
61252;SDS011;47127;47.516;8.596;2023-05-07T06:23:09;5.25;;;2.40;;
61252;SDS011;47127;47.516;8.596;2023-05-07T06:25:35;4.88;;;2.65;;
61252;SDS011;47127;47.516;8.596;2023-05-07T06:28:00;7.53;;;2.30;;
61252;SDS011;47127;47.516;8.596;2023-05-07T06:30:26;4.53;;;2.38;;
61252;SDS011;47127;47.516;8.596;2023-05-07T06:32:52;6.03;;;2.72;;
61252;SDS011;47127;47.516;8.596;2023-05-07T06:35:17;4.63;;;2.25;;
61252;SDS011;47127;47.516;8.596;2023-05-07T06:37:43;6.10;;;2.42;;
61252;SDS011;47127;47.516;8.596;2023-05-07T06:40:09;3.58;;;2.10;;
61252;SDS011;47127;47.516;8.596;2023-05-07T06:42:35;5.43;;;2.17;;
61252;SDS011;47127;47.516;8.596;2023-05-07T06:45:02;7.80;;;2.35;;
61252;SDS011;47127;47.516;8.596;2023-05-07T06:47:27;6.43;;;2.10;;
61252;SDS011;47127;47.516;8.596;2023-05-07T06:49:53;7.18;;;2.33;;
61252;SDS011;47127;47.516;8.596;2023-05-07T06:52:19;4.07;;;2.00;;
61252;SDS011;47127;47.516;8.596;2023-05-07T06:54:44;4.85;;;1.80;;
61252;SDS011;47127;47.516;8.596;2023-05-07T06:57:10;8.50;;;2.05;;
61252;SDS011;47127;47.516;8.596;2023-05-07T06:59:36;6.32;;;2.30;;
61252;SDS011;47127;47.516;8.596;2023-05-07T07:02:02;4.35;;;1.92;;
61252;SDS011;47127;47.516;8.596;2023-05-07T07:04:28;9.45;;;3.25;;
61252;SDS011;47127;47.516;8.596;2023-05-07T07:06:53;7.68;;;3.05;;
61252;SDS011;47127;47.516;8.596;2023-05-07T07:09:19;5.35;;;2.90;;
61252;SDS011;47127;47.516;8.596;2023-05-07T07:11:45;9.05;;;3.58;;
61252;SDS011;47127;47.516;8.596;2023-05-07T07:14:10;7.15;;;3.78;;
61252;SDS011;47127;47.516;8.596;2023-05-07T07:16:36;9.05;;;4.18;;
61252;SDS011;47127;47.516;8.596;2023-05-07T07:19:01;10.25;;;4.13;;
61252;SDS011;47127;47.516;8.596;2023-05-07T07:21:27;9.80;;;4.22;;
61252;SDS011;47127;47.516;8.596;2023-05-07T07:23:52;10.57;;;4.07;;
61252;SDS011;47127;47.516;8.596;2023-05-07T07:26:18;8.15;;;3.45;;
61252;SDS011;47127;47.516;8.596;2023-05-07T07:28:44;6.03;;;3.47;;
61252;SDS011;47127;47.516;8.596;2023-05-07T07:31:10;6.65;;;3.80;;
61252;SDS011;47127;47.516;8.596;2023-05-07T07:33:36;6.28;;;3.30;;
61252;SDS011;47127;47.516;8.596;2023-05-07T07:36:02;4.75;;;2.80;;
61252;SDS011;47127;47.516;8.596;2023-05-07T07:38:27;4.90;;;2.63;;
61252;SDS011;47127;47.516;8.596;2023-05-07T07:40:53;5.03;;;2.67;;
61252;SDS011;47127;47.516;8.596;2023-05-07T07:43:18;11.23;;;3.17;;
61252;SDS011;47127;47.516;8.596;2023-05-07T07:45:44;5.78;;;2.50;;
61252;SDS011;47127;47.516;8.596;2023-05-07T07:48:12;4.80;;;2.35;;
61252;SDS011;47127;47.516;8.596;2023-05-07T07:50:38;7.40;;;2.80;;
61252;SDS011;47127;47.516;8.596;2023-05-07T07:53:04;5.53;;;2.70;;
61252;SDS011;47127;47.516;8.596;2023-05-07T07:55:29;4.80;;;2.40;;
61252;SDS011;47127;47.516;8.596;2023-05-07T07:57:58;5.25;;;2.80;;
61252;SDS011;47127;47.516;8.596;2023-05-07T08:00:24;4.97;;;2.63;;
61252;SDS011;47127;47.516;8.596;2023-05-07T08:02:49;6.28;;;2.70;;
61252;SDS011;47127;47.516;8.596;2023-05-07T08:05:15;4.97;;;2.70;;
61252;SDS011;47127;47.516;8.596;2023-05-07T08:07:41;6.07;;;2.35;;
61252;SDS011;47127;47.516;8.596;2023-05-07T08:10:06;3.47;;;1.90;;
61252;SDS011;47127;47.516;8.596;2023-05-07T08:12:34;4.90;;;1.80;;
61252;SDS011;47127;47.516;8.596;2023-05-07T08:15:00;4.90;;;1.98;;
61252;SDS011;47127;47.516;8.596;2023-05-07T08:17:25;4.40;;;1.85;;
61252;SDS011;47127;47.516;8.596;2023-05-07T08:19:51;4.53;;;1.90;;
61252;SDS011;47127;47.516;8.596;2023-05-07T08:22:16;5.22;;;2.17;;
61252;SDS011;47127;47.516;8.596;2023-05-07T08:24:43;3.80;;;1.60;;
61252;SDS011;47127;47.516;8.596;2023-05-07T08:27:09;4.20;;;1.98;;
61252;SDS011;47127;47.516;8.596;2023-05-07T08:29:36;4.53;;;1.67;;
61252;SDS011;47127;47.516;8.596;2023-05-07T08:32:03;5.35;;;2.20;;
61252;SDS011;47127;47.516;8.596;2023-05-07T08:34:28;4.32;;;1.80;;
61252;SDS011;47127;47.516;8.596;2023-05-07T08:36:55;4.60;;;1.50;;
61252;SDS011;47127;47.516;8.596;2023-05-07T08:39:22;5.32;;;2.28;;
61252;SDS011;47127;47.516;8.596;2023-05-07T08:41:48;3.50;;;1.85;;
61252;SDS011;47127;47.516;8.596;2023-05-07T08:44:22;5.60;;;1.67;;
61252;SDS011;47127;47.516;8.596;2023-05-07T08:46:47;3.65;;;1.95;;
61252;SDS011;47127;47.516;8.596;2023-05-07T08:49:18;4.13;;;1.83;;
61252;SDS011;47127;47.516;8.596;2023-05-07T08:51:45;3.33;;;1.90;;
61252;SDS011;47127;47.516;8.596;2023-05-07T08:54:17;4.47;;;1.90;;
61252;SDS011;47127;47.516;8.596;2023-05-07T08:56:44;4.32;;;2.40;;
61252;SDS011;47127;47.516;8.596;2023-05-07T08:59:10;3.40;;;2.15;;
61252;SDS011;47127;47.516;8.596;2023-05-07T09:01:41;3.08;;;1.80;;
61252;SDS011;47127;47.516;8.596;2023-05-07T09:04:09;8.05;;;2.33;;
61252;SDS011;47127;47.516;8.596;2023-05-07T09:06:35;4.35;;;2.30;;
61252;SDS011;47127;47.516;8.596;2023-05-07T09:09:02;4.70;;;2.47;;
61252;SDS011;47127;47.516;8.596;2023-05-07T09:11:31;4.95;;;2.10;;
61252;SDS011;47127;47.516;8.596;2023-05-07T09:13:58;4.82;;;2.63;;
61252;SDS011;47127;47.516;8.596;2023-05-07T09:16:30;4.95;;;2.13;;
61252;SDS011;47127;47.516;8.596;2023-05-07T09:18:57;4.65;;;2.13;;
61252;SDS011;47127;47.516;8.596;2023-05-07T09:21:23;4.75;;;2.20;;
61252;SDS011;47127;47.516;8.596;2023-05-07T09:23:51;12.05;;;2.25;;
61252;SDS011;47127;47.516;8.596;2023-05-07T09:26:18;4.72;;;2.00;;
61252;SDS011;47127;47.516;8.596;2023-05-07T09:28:46;5.63;;;2.25;;
61252;SDS011;47127;47.516;8.596;2023-05-07T09:31:12;5.05;;;2.50;;
61252;SDS011;47127;47.516;8.596;2023-05-07T09:33:38;4.05;;;2.10;;
61252;SDS011;47127;47.516;8.596;2023-05-07T09:36:05;4.13;;;1.90;;
61252;SDS011;47127;47.516;8.596;2023-05-07T09:38:33;5.05;;;2.40;;
61252;SDS011;47127;47.516;8.596;2023-05-07T09:43:34;3.38;;;2.17;;
61252;SDS011;47127;47.516;8.596;2023-05-07T09:46:05;7.30;;;2.15;;
61252;SDS011;47127;47.516;8.596;2023-05-07T09:48:38;4.35;;;2.50;;
61252;SDS011;47127;47.516;8.596;2023-05-07T09:51:09;6.05;;;2.58;;
61252;SDS011;47127;47.516;8.596;2023-05-07T09:53:36;4.18;;;2.30;;
61252;SDS011;47127;47.516;8.596;2023-05-07T09:56:04;5.03;;;2.80;;
61252;SDS011;47127;47.516;8.596;2023-05-07T09:58:30;6.93;;;2.90;;
61252;SDS011;47127;47.516;8.596;2023-05-07T10:00:59;7.68;;;2.22;;
61252;SDS011;47127;47.516;8.596;2023-05-07T10:03:28;5.13;;;2.30;;
61252;SDS011;47127;47.516;8.596;2023-05-07T10:05:58;4.78;;;2.17;;
61252;SDS011;47127;47.516;8.596;2023-05-07T10:08:25;6.03;;;2.30;;
61252;SDS011;47127;47.516;8.596;2023-05-07T10:10:51;3.30;;;2.13;;
61252;SDS011;47127;47.516;8.596;2023-05-07T10:13:19;4.50;;;2.33;;
61252;SDS011;47127;47.516;8.596;2023-05-07T10:15:45;5.20;;;2.53;;
61252;SDS011;47127;47.516;8.596;2023-05-07T10:18:18;4.07;;;2.40;;
61252;SDS011;47127;47.516;8.596;2023-05-07T10:20:48;5.50;;;2.35;;
61252;SDS011;47127;47.516;8.596;2023-05-07T10:23:19;5.20;;;2.60;;
61252;SDS011;47127;47.516;8.596;2023-05-07T10:25:48;6.22;;;2.42;;
61252;SDS011;47127;47.516;8.596;2023-05-07T10:28:14;5.78;;;2.28;;
61252;SDS011;47127;47.516;8.596;2023-05-07T10:33:33;8.30;;;2.40;;
61252;SDS011;47127;47.516;8.596;2023-05-07T10:36:00;5.55;;;2.42;;
61252;SDS011;47127;47.516;8.596;2023-05-07T10:38:29;5.53;;;2.53;;
61252;SDS011;47127;47.516;8.596;2023-05-07T10:40:55;6.50;;;2.90;;
61252;SDS011;47127;47.516;8.596;2023-05-07T10:43:20;5.57;;;2.40;;
61252;SDS011;47127;47.516;8.596;2023-05-07T10:51:31;3.42;;;2.15;;
61252;SDS011;47127;47.516;8.596;2023-05-07T10:56:36;4.15;;;2.20;;
61252;SDS011;47127;47.516;8.596;2023-05-07T11:02:00;4.93;;;2.40;;
61252;SDS011;47127;47.516;8.596;2023-05-07T11:04:31;6.82;;;2.30;;
61252;SDS011;47127;47.516;8.596;2023-05-07T11:15:02;4.50;;;2.42;;
61252;SDS011;47127;47.516;8.596;2023-05-07T11:17:30;5.35;;;2.50;;
61252;SDS011;47127;47.516;8.596;2023-05-07T11:19:57;3.83;;;2.28;;
61252;SDS011;47127;47.516;8.596;2023-05-07T11:25:05;6.32;;;2.90;;
61252;SDS011;47127;47.516;8.596;2023-05-07T11:27:32;4.72;;;2.63;;
61252;SDS011;47127;47.516;8.596;2023-05-07T11:29:58;4.57;;;2.22;;
61252;SDS011;47127;47.516;8.596;2023-05-07T11:32:29;4.00;;;2.50;;
61252;SDS011;47127;47.516;8.596;2023-05-07T11:34:57;9.05;;;3.08;;
61252;SDS011;47127;47.516;8.596;2023-05-07T11:37:24;5.65;;;2.95;;
61252;SDS011;47127;47.516;8.596;2023-05-07T11:39:51;5.47;;;2.60;;
61252;SDS011;47127;47.516;8.596;2023-05-07T11:42:33;7.18;;;2.33;;
61252;SDS011;47127;47.516;8.596;2023-05-07T11:45:00;5.80;;;2.80;;
61252;SDS011;47127;47.516;8.596;2023-05-07T11:47:26;4.88;;;2.63;;
61252;SDS011;47127;47.516;8.596;2023-05-07T11:49:55;12.90;;;3.17;;
61252;SDS011;47127;47.516;8.596;2023-05-07T11:52:22;9.10;;;3.38;;
61252;SDS011;47127;47.516;8.596;2023-05-07T11:54:51;7.63;;;3.10;;
61252;SDS011;47127;47.516;8.596;2023-05-07T11:57:19;6.25;;;3.53;;
61252;SDS011;47127;47.516;8.596;2023-05-07T11:59:46;3.83;;;2.40;;
61252;SDS011;47127;47.516;8.596;2023-05-07T12:02:16;5.28;;;2.50;;
61252;SDS011;47127;47.516;8.596;2023-05-07T12:04:42;6.57;;;2.42;;
61252;SDS011;47127;47.516;8.596;2023-05-07T12:07:14;4.53;;;1.98;;
61252;SDS011;47127;47.516;8.596;2023-05-07T12:09:41;5.78;;;2.58;;
61252;SDS011;47127;47.516;8.596;2023-05-07T12:12:07;5.03;;;2.35;;
61252;SDS011;47127;47.516;8.596;2023-05-07T12:14:37;5.72;;;2.30;;
61252;SDS011;47127;47.516;8.596;2023-05-07T12:17:07;6.22;;;2.10;;
61252;SDS011;47127;47.516;8.596;2023-05-07T12:19:33;3.72;;;2.20;;
61252;SDS011;47127;47.516;8.596;2023-05-07T12:22:01;4.70;;;2.55;;
61252;SDS011;47127;47.516;8.596;2023-05-07T12:24:49;4.57;;;2.05;;
61252;SDS011;47127;47.516;8.596;2023-05-07T12:27:21;5.32;;;2.50;;
61252;SDS011;47127;47.516;8.596;2023-05-07T12:29:47;2.53;;;1.80;;
61252;SDS011;47127;47.516;8.596;2023-05-07T12:32:17;4.93;;;1.85;;
61252;SDS011;47127;47.516;8.596;2023-05-07T12:34:44;2.47;;;1.60;;
61252;SDS011;47127;47.516;8.596;2023-05-07T12:37:10;4.75;;;2.35;;
61252;SDS011;47127;47.516;8.596;2023-05-07T12:39:37;4.65;;;2.30;;
61252;SDS011;47127;47.516;8.596;2023-05-07T12:42:03;4.07;;;2.30;;
61252;SDS011;47127;47.516;8.596;2023-05-07T12:44:29;2.88;;;1.80;;
61252;SDS011;47127;47.516;8.596;2023-05-07T12:46:56;2.83;;;1.88;;
61252;SDS011;47127;47.516;8.596;2023-05-07T12:49:22;4.03;;;2.05;;
61252;SDS011;47127;47.516;8.596;2023-05-07T12:51:49;8.75;;;2.80;;
61252;SDS011;47127;47.516;8.596;2023-05-07T12:54:30;6.90;;;2.92;;
61252;SDS011;47127;47.516;8.596;2023-05-07T12:57:15;8.10;;;2.88;;
61252;SDS011;47127;47.516;8.596;2023-05-07T12:59:45;5.03;;;2.25;;
61252;SDS011;47127;47.516;8.596;2023-05-07T13:02:11;4.72;;;2.60;;
61252;SDS011;47127;47.516;8.596;2023-05-07T13:04:37;5.45;;;2.70;;
61252;SDS011;47127;47.516;8.596;2023-05-07T13:07:02;6.30;;;2.42;;
61252;SDS011;47127;47.516;8.596;2023-05-07T13:09:28;5.70;;;2.47;;
61252;SDS011;47127;47.516;8.596;2023-05-07T13:11:54;5.38;;;3.22;;
61252;SDS011;47127;47.516;8.596;2023-05-07T13:14:20;6.38;;;3.28;;
61252;SDS011;47127;47.516;8.596;2023-05-07T13:16:46;4.82;;;2.20;;
61252;SDS011;47127;47.516;8.596;2023-05-07T13:19:12;5.57;;;2.67;;
61252;SDS011;47127;47.516;8.596;2023-05-07T13:21:37;7.45;;;2.17;;
61252;SDS011;47127;47.516;8.596;2023-05-07T13:24:03;15.25;;;3.10;;
61252;SDS011;47127;47.516;8.596;2023-05-07T13:26:31;5.82;;;2.13;;
61252;SDS011;47127;47.516;8.596;2023-05-07T13:28:57;5.10;;;2.00;;
61252;SDS011;47127;47.516;8.596;2023-05-07T13:31:23;4.90;;;2.20;;
61252;SDS011;47127;47.516;8.596;2023-05-07T13:33:49;6.22;;;2.50;;
61252;SDS011;47127;47.516;8.596;2023-05-07T13:36:15;6.25;;;2.63;;
61252;SDS011;47127;47.516;8.596;2023-05-07T13:38:40;5.70;;;2.00;;
61252;SDS011;47127;47.516;8.596;2023-05-07T13:41:06;5.22;;;1.80;;
61252;SDS011;47127;47.516;8.596;2023-05-07T13:43:31;3.95;;;2.25;;
61252;SDS011;47127;47.516;8.596;2023-05-07T13:45:58;3.00;;;1.67;;
61252;SDS011;47127;47.516;8.596;2023-05-07T13:48:24;3.35;;;1.80;;
61252;SDS011;47127;47.516;8.596;2023-05-07T13:50:49;5.10;;;2.20;;
61252;SDS011;47127;47.516;8.596;2023-05-07T13:53:15;3.83;;;2.03;;
61252;SDS011;47127;47.516;8.596;2023-05-07T13:55:43;4.47;;;2.05;;
61252;SDS011;47127;47.516;8.596;2023-05-07T13:58:08;4.10;;;1.90;;
61252;SDS011;47127;47.516;8.596;2023-05-07T14:00:34;5.63;;;2.05;;
61252;SDS011;47127;47.516;8.596;2023-05-07T14:03:00;2.28;;;1.60;;
61252;SDS011;47127;47.516;8.596;2023-05-07T14:05:26;3.83;;;1.60;;
61252;SDS011;47127;47.516;8.596;2023-05-07T14:07:54;4.25;;;1.85;;
61252;SDS011;47127;47.516;8.596;2023-05-07T14:10:22;5.35;;;1.90;;
61252;SDS011;47127;47.516;8.596;2023-05-07T14:12:48;4.05;;;2.20;;
61252;SDS011;47127;47.516;8.596;2023-05-07T14:15:13;8.00;;;2.53;;
61252;SDS011;47127;47.516;8.596;2023-05-07T14:17:39;3.90;;;1.40;;
61252;SDS011;47127;47.516;8.596;2023-05-07T14:20:05;2.85;;;1.13;;
61252;SDS011;47127;47.516;8.596;2023-05-07T14:22:31;7.70;;;2.30;;
61252;SDS011;47127;47.516;8.596;2023-05-07T14:24:57;6.25;;;1.55;;
61252;SDS011;47127;47.516;8.596;2023-05-07T14:27:23;5.13;;;1.83;;
61252;SDS011;47127;47.516;8.596;2023-05-07T14:29:49;4.10;;;2.00;;
61252;SDS011;47127;47.516;8.596;2023-05-07T14:32:17;3.63;;;2.08;;
61252;SDS011;47127;47.516;8.596;2023-05-07T14:34:43;3.75;;;2.00;;
61252;SDS011;47127;47.516;8.596;2023-05-07T14:37:10;7.05;;;1.95;;
61252;SDS011;47127;47.516;8.596;2023-05-07T14:39:36;4.25;;;1.70;;
61252;SDS011;47127;47.516;8.596;2023-05-07T14:42:02;3.08;;;1.38;;
61252;SDS011;47127;47.516;8.596;2023-05-07T14:44:27;5.80;;;2.10;;
61252;SDS011;47127;47.516;8.596;2023-05-07T14:46:53;2.60;;;1.58;;
61252;SDS011;47127;47.516;8.596;2023-05-07T14:49:19;3.58;;;1.20;;
61252;SDS011;47127;47.516;8.596;2023-05-07T14:51:45;2.28;;;1.25;;
61252;SDS011;47127;47.516;8.596;2023-05-07T14:54:12;4.40;;;1.50;;
61252;SDS011;47127;47.516;8.596;2023-05-07T14:56:38;1.98;;;1.23;;
61252;SDS011;47127;47.516;8.596;2023-05-07T14:59:04;2.83;;;1.15;;
61252;SDS011;47127;47.516;8.596;2023-05-07T15:01:30;4.50;;;1.58;;
61252;SDS011;47127;47.516;8.596;2023-05-07T15:03:57;2.53;;;1.80;;
61252;SDS011;47127;47.516;8.596;2023-05-07T15:06:22;3.00;;;1.20;;
61252;SDS011;47127;47.516;8.596;2023-05-07T15:08:48;1.80;;;1.30;;
61252;SDS011;47127;47.516;8.596;2023-05-07T15:11:14;4.90;;;1.67;;